Time;durP1;ratioP1;P1;durP2;ratioP2;P2;SDS_P1;SDS_P2;PMS_P1;PMS_P2;Temp;Humidity;BMP_temperature;BMP_pressure;BME280_temperature;BME280_humidity;BME280_pressure;Samples;Min_cycle;Max_cycle;Signal;HPM_P1;HPM_P2
2022/03/15 00:01:48;;;;;;;16.05;10.10;;;1.50;83.30;;;;;;1905361;75;21089;-49
2022/03/15 00:04:18;;;;;;;17.17;10.20;;;1.40;83.20;;;;;;1905293;75;21093;-52
2022/03/15 00:06:47;;;;;;;14.58;10.70;;;1.40;83.20;;;;;;1905361;75;21003;-50
2022/03/15 00:09:17;;;;;;;14.07;9.30;;;1.30;81.90;;;;;;1905359;75;21019;-51
2022/03/15 00:11:46;;;;;;;15.30;9.08;;;1.20;82.60;;;;;;1912981;74;21081;-51
2022/03/15 00:14:17;;;;;;;18.05;10.35;;;1.10;81.90;;;;;;1924701;74;21143;-50
2022/03/15 00:16:47;;;;;;;12.98;8.95;;;1.00;82.90;;;;;;1924655;74;21030;-49
2022/03/15 00:19:16;;;;;;;18.00;9.80;;;1.00;83.80;;;;;;1924656;74;21318;-50
2022/03/15 00:21:46;;;;;;;18.75;9.35;;;1.00;83.40;;;;;;1924675;74;21058;-47
2022/03/15 00:24:15;;;;;;;13.72;9.28;;;0.90;82.40;;;;;;1924746;74;21014;-52
2022/03/15 00:26:44;;;;;;;14.58;10.10;;;0.90;83.50;;;;;;1924757;74;21043;-49
2022/03/15 00:29:23;;;;;;;18.82;11.05;;;0.90;83.80;;;;;;1924787;74;21108;-49
2022/03/15 00:31:45;;;;;;;20.92;11.48;;;0.90;83.60;;;;;;1921929;74;21023;-52
2022/03/15 00:34:14;;;;;;;13.38;9.63;;;0.90;83.40;;;;;;1924743;74;21019;-51
2022/03/15 00:36:44;;;;;;;14.68;9.50;;;1.00;84.40;;;;;;1924685;74;20995;-49
2022/03/15 00:39:14;;;;;;;13.18;9.75;;;1.00;84.00;;;;;;1924703;74;21015;-51
2022/03/15 00:41:43;;;;;;;15.35;10.75;;;1.10;83.50;;;;;;1924668;74;21100;-51
2022/03/15 00:44:13;;;;;;;19.55;11.57;;;1.10;83.60;;;;;;1924626;74;21013;-51
2022/03/15 00:46:42;;;;;;;15.05;10.78;;;1.20;83.90;;;;;;1924752;74;20995;-51
2022/03/15 00:49:11;;;;;;;17.62;11.18;;;1.30;83.70;;;;;;1924772;74;21003;-52
2022/03/15 00:51:41;;;;;;;13.40;10.15;;;1.30;83.70;;;;;;1924664;74;21092;-49
2022/03/15 00:54:11;;;;;;;17.60;11.18;;;1.30;84.10;;;;;;1924743;74;21095;-49
2022/03/15 00:56:40;;;;;;;15.13;10.32;;;1.40;83.80;;;;;;1924619;74;21088;-48
2022/03/15 00:59:09;;;;;;;15.65;10.68;;;1.40;83.90;;;;;;1924702;74;21497;-49
2022/03/15 01:01:41;;;;;;;16.60;10.80;;;1.40;83.80;;;;;;1924636;74;21115;-48
2022/03/15 01:04:10;;;;;;;17.15;10.45;;;1.40;83.90;;;;;;1924659;74;21010;-48
2022/03/15 01:06:42;;;;;;;15.40;10.65;;;1.50;84.00;;;;;;1924689;74;21039;-48
2022/03/15 01:09:11;;;;;;;15.48;11.83;;;1.50;83.90;;;;;;1924609;74;20995;-51
2022/03/15 01:11:41;;;;;;;16.23;10.68;;;1.50;84.10;;;;;;1922505;74;21088;-49
2022/03/15 01:14:12;;;;;;;18.37;10.63;;;1.50;84.00;;;;;;1905227;75;21028;-52
2022/03/15 01:16:41;;;;;;;17.10;9.95;;;1.50;83.80;;;;;;1905233;75;21027;-48
2022/03/15 01:19:11;;;;;;;20.37;11.97;;;1.50;83.90;;;;;;1905244;75;21172;-48
2022/03/15 01:21:41;;;;;;;18.98;11.40;;;1.50;84.60;;;;;;1905276;74;21093;-50
2022/03/15 01:24:10;;;;;;;15.88;10.55;;;1.50;83.90;;;;;;1905229;75;21000;-49
2022/03/15 01:26:40;;;;;;;15.85;10.05;;;1.40;84.20;;;;;;1905312;75;21109;-51
2022/03/15 01:29:09;;;;;;;20.15;12.15;;;1.50;84.40;;;;;;1905255;75;21023;-48
2022/03/15 01:31:39;;;;;;;17.12;11.40;;;1.60;84.60;;;;;;1905317;75;21560;-48
2022/03/15 01:34:08;;;;;;;15.00;10.25;;;1.60;84.40;;;;;;1905134;75;21023;-51
2022/03/15 01:36:38;;;;;;;16.40;10.18;;;1.60;84.20;;;;;;1905195;75;21089;-50
2022/03/15 01:39:08;;;;;;;17.23;11.85;;;1.70;84.50;;;;;;1905187;75;21043;-49
2022/03/15 01:41:39;;;;;;;16.87;10.75;;;1.70;84.40;;;;;;1905166;75;21023;-49
2022/03/15 01:44:21;;;;;;;17.65;10.63;;;1.70;84.40;;;;;;1905126;74;21038;-49
2022/03/15 01:46:51;;;;;;;17.37;11.40;;;1.70;84.50;;;;;;1905191;75;21101;-51
2022/03/15 01:49:24;;;;;;;20.30;12.65;;;1.80;84.70;;;;;;1905428;75;21113;-49
2022/03/15 01:51:53;;;;;;;19.73;10.85;;;1.80;84.80;;;;;;1905271;75;21006;-49
2022/03/15 01:54:24;;;;;;;16.05;10.45;;;2.00;84.90;;;;;;1905145;75;21023;-48
2022/03/15 01:56:53;;;;;;;17.92;12.10;;;2.00;84.90;;;;;;1905162;75;21085;-49
2022/03/15 01:59:23;;;;;;;20.25;12.13;;;2.10;84.80;;;;;;1905210;75;21016;-50
2022/03/15 02:01:53;;;;;;;17.15;11.65;;;2.10;85.00;;;;;;1905172;75;21027;-49
2022/03/15 02:04:22;;;;;;;19.80;11.50;;;2.20;85.00;;;;;;1905206;75;21466;-49
2022/03/15 02:06:54;;;;;;;15.35;10.32;;;2.30;84.50;;;;;;1905150;74;21058;-48
2022/03/15 02:09:23;;;;;;;14.87;10.43;;;2.20;83.90;;;;;;1903881;74;21055;-52
2022/03/15 02:11:53;;;;;;;18.45;9.83;;;2.20;84.20;;;;;;1905359;74;20992;-49
2022/03/15 02:14:23;;;;;;;19.57;10.63;;;2.20;84.40;;;;;;1924025;74;21046;-51
2022/03/15 02:16:52;;;;;;;13.68;9.28;;;2.20;84.00;;;;;;1924703;74;21100;-49
2022/03/15 02:19:22;;;;;;;14.05;9.90;;;2.20;84.00;;;;;;1924707;74;21077;-49
2022/03/15 02:21:52;;;;;;;13.18;10.05;;;2.10;84.20;;;;;;1924681;74;21018;-48
2022/03/15 02:24:21;;;;;;;16.97;9.58;;;2.10;84.10;;;;;;1924862;74;21031;-48
2022/03/15 02:26:51;;;;;;;13.70;9.80;;;2.10;84.00;;;;;;1924692;74;21025;-48
2022/03/15 02:29:21;;;;;;;15.53;10.20;;;2.10;84.40;;;;;;1924802;74;21015;-49
2022/03/15 02:31:51;;;;;;;18.00;8.95;;;2.10;83.10;;;;;;1924789;74;21025;-49
2022/03/15 02:34:22;;;;;;;13.35;9.33;;;2.10;83.00;;;;;;1924382;74;21022;-50
2022/03/15 02:36:51;;;;;;;17.70;9.98;;;2.00;83.90;;;;;;1924687;74;21120;-49
2022/03/15 02:39:21;;;;;;;13.58;9.38;;;2.00;84.00;;;;;;1924855;74;21019;-48
2022/03/15 02:41:50;;;;;;;14.55;9.43;;;2.10;84.40;;;;;;1924651;74;21038;-48
2022/03/15 02:44:19;;;;;;;18.80;9.93;;;2.10;84.10;;;;;;1924717;74;21003;-49
2022/03/15 02:46:52;;;;;;;13.20;8.90;;;2.20;84.50;;;;;;1924908;74;21527;-50
2022/03/15 02:49:21;;;;;;;12.03;8.63;;;2.20;83.70;;;;;;1924828;74;21129;-50
2022/03/15 02:51:50;;;;;;;13.22;8.65;;;2.20;83.50;;;;;;1924771;74;21002;-50
2022/03/15 02:54:20;;;;;;;18.05;9.15;;;2.20;83.00;;;;;;1924651;74;21046;-50
2022/03/15 02:56:50;;;;;;;10.55;7.92;;;2.20;84.00;;;;;;1924761;74;21002;-51
2022/03/15 02:59:20;;;;;;;12.75;8.60;;;2.20;83.50;;;;;;1924796;74;21112;-48
2022/03/15 03:01:50;;;;;;;12.37;8.48;;;2.10;83.50;;;;;;1924580;74;21089;-50
2022/03/15 03:04:21;;;;;;;15.85;9.23;;;2.10;84.00;;;;;;1924696;74;21481;-48
2022/03/15 03:06:52;;;;;;;19.85;9.48;;;2.10;83.50;;;;;;1924604;74;21026;-49
2022/03/15 03:09:21;;;;;;;14.03;7.87;;;2.10;83.70;;;;;;1924793;74;21505;-49
2022/03/15 03:11:50;;;;;;;13.25;8.65;;;2.10;83.70;;;;;;1924859;74;21026;-50
2022/03/15 03:14:21;;;;;;;17.37;8.15;;;2.10;83.80;;;;;;1912029;74;21137;-48
2022/03/15 03:16:50;;;;;;;12.18;7.58;;;2.20;83.00;;;;;;1905472;75;21028;-50
2022/03/15 03:19:21;;;;;;;11.08;8.15;;;2.20;83.20;;;;;;1905533;74;21039;-49
2022/03/15 03:21:50;;;;;;;12.47;8.63;;;2.10;82.80;;;;;;1905344;75;21096;-49
2022/03/15 03:24:24;;;;;;;10.45;7.37;;;2.10;83.50;;;;;;1905496;74;21000;-49
2022/03/15 03:26:50;;;;;;;13.10;7.10;;;2.10;83.20;;;;;;1905135;74;21032;-49
2022/03/15 03:29:21;;;;;;;11.63;7.78;;;2.10;82.90;;;;;;1905259;75;21020;-51
2022/03/15 03:31:51;;;;;;;11.48;7.85;;;2.00;83.00;;;;;;1905325;74;21035;-49
2022/03/15 03:34:20;;;;;;;16.35;7.97;;;2.10;82.60;;;;;;1905270;74;21020;-48
2022/03/15 03:36:49;;;;;;;15.93;8.93;;;2.00;82.50;;;;;;1905313;75;21020;-48
2022/03/15 03:39:19;;;;;;;16.95;8.08;;;2.00;81.80;;;;;;1905225;74;21035;-48
2022/03/15 03:41:49;;;;;;;13.05;7.97;;;2.00;82.90;;;;;;1905333;75;21117;-48
2022/03/15 03:44:18;;;;;;;11.97;7.17;;;1.90;80.90;;;;;;1905267;74;21027;-48
2022/03/15 03:46:47;;;;;;;13.62;8.40;;;1.90;82.10;;;;;;1905267;75;21063;-49
2022/03/15 03:49:17;;;;;;;14.47;7.28;;;1.90;82.50;;;;;;1905304;75;21070;-48
2022/03/15 03:51:46;;;;;;;13.08;8.15;;;1.90;82.40;;;;;;1905210;75;20995;-51
2022/03/15 03:54:16;;;;;;;14.78;8.75;;;1.90;81.30;;;;;;1905341;75;21063;-49
2022/03/15 03:56:45;;;;;;;12.28;7.12;;;1.90;82.00;;;;;;1905219;75;20992;-49
2022/03/15 03:59:15;;;;;;;9.68;6.85;;;1.90;82.50;;;;;;1905271;74;21097;-49
2022/03/15 04:01:44;;;;;;;12.10;8.38;;;1.90;81.70;;;;;;1905208;75;20999;-48
2022/03/15 04:04:14;;;;;;;11.38;7.08;;;1.90;82.00;;;;;;1905260;75;21019;-51
2022/03/15 04:06:43;;;;;;;10.45;7.25;;;1.90;82.00;;;;;;1905340;74;21116;-48
2022/03/15 04:09:13;;;;;;;10.68;7.45;;;1.90;81.50;;;;;;1905366;75;21097;-48
2022/03/15 04:11:43;;;;;;;9.20;6.53;;;1.90;80.70;;;;;;1905244;74;21035;-51
2022/03/15 04:14:12;;;;;;;9.20;7.20;;;1.90;81.10;;;;;;1905268;75;21091;-48
2022/03/15 04:16:42;;;;;;;16.95;8.10;;;1.90;80.50;;;;;;1905219;75;21101;-48
2022/03/15 04:19:11;;;;;;;9.25;7.80;;;1.90;82.00;;;;;;1905322;74;21016;-48
2022/03/15 04:21:41;;;;;;;8.65;6.95;;;1.90;81.10;;;;;;1905398;75;20996;-49
2022/03/15 04:24:10;;;;;;;10.50;7.40;;;1.90;80.80;;;;;;1905352;75;21043;-51
2022/03/15 04:26:41;;;;;;;12.55;6.30;;;2.00;81.50;;;;;;1905271;75;21023;-48
2022/03/15 04:29:11;;;;;;;13.30;7.95;;;2.00;80.60;;;;;;1905187;74;21085;-48
2022/03/15 04:31:40;;;;;;;14.47;8.55;;;2.00;81.10;;;;;;1905299;74;21015;-50
2022/03/15 04:34:10;;;;;;;13.68;7.42;;;2.00;80.50;;;;;;1905191;75;21089;-49
2022/03/15 04:36:41;;;;;;;11.70;7.37;;;2.00;80.70;;;;;;1905276;74;21027;-48
2022/03/15 04:39:10;;;;;;;10.55;8.40;;;2.00;80.90;;;;;;1905459;74;21030;-48
2022/03/15 04:41:40;;;;;;;12.98;7.47;;;2.00;80.50;;;;;;1905368;75;21012;-50
2022/03/15 04:44:09;;;;;;;10.20;7.20;;;2.10;80.00;;;;;;1905416;75;20995;-48
2022/03/15 04:46:39;;;;;;;12.03;7.87;;;2.00;78.70;;;;;;1905420;75;21482;-49
2022/03/15 04:49:08;;;;;;;14.63;7.90;;;2.00;79.70;;;;;;1905372;75;21061;-48
2022/03/15 04:51:38;;;;;;;17.60;8.68;;;2.00;80.80;;;;;;1905342;75;21070;-48
2022/03/15 04:54:07;;;;;;;14.20;7.80;;;2.00;79.60;;;;;;1905312;75;21144;-48
2022/03/15 04:56:38;;;;;;;17.50;7.58;;;2.10;80.40;;;;;;1905422;74;21052;-49
2022/03/15 04:59:07;;;;;;;13.03;7.78;;;2.10;81.50;;;;;;1905321;74;21003;-51
2022/03/15 05:01:36;;;;;;;12.70;7.30;;;2.20;79.80;;;;;;1905184;75;21027;-50
2022/03/15 05:04:06;;;;;;;13.70;7.87;;;2.20;80.50;;;;;;1905196;74;21035;-48
2022/03/15 05:06:38;;;;;;;10.45;7.35;;;2.30;80.20;;;;;;1905401;75;20996;-48
2022/03/15 05:09:06;;;;;;;7.95;6.33;;;2.30;80.80;;;;;;1905169;74;21051;-48
2022/03/15 05:11:36;;;;;;;9.93;7.00;;;2.30;80.60;;;;;;1905292;75;21027;-49
2022/03/15 05:14:10;;;;;;;12.65;6.97;;;2.40;80.50;;;;;;1905830;74;21022;-51
2022/03/15 05:16:39;;;;;;;12.68;8.18;;;2.40;80.80;;;;;;1924584;74;21486;-48
2022/03/15 05:19:09;;;;;;;9.83;7.22;;;2.50;80.20;;;;;;1924437;74;21077;-48
2022/03/15 05:21:38;;;;;;;11.03;6.92;;;2.50;79.70;;;;;;1924670;74;21104;-48
2022/03/15 05:24:08;;;;;;;10.25;7.00;;;2.50;79.80;;;;;;1924643;74;21066;-48
2022/03/15 05:26:37;;;;;;;10.53;6.65;;;2.50;80.20;;;;;;1924527;74;21279;-50
2022/03/15 05:29:07;;;;;;;21.48;8.18;;;2.60;80.40;;;;;;1924487;74;21108;-49
2022/03/15 05:31:37;;;;;;;13.35;7.28;;;2.60;78.70;;;;;;1924634;74;21023;-51
2022/03/15 05:34:06;;;;;;;12.85;7.05;;;2.70;79.40;;;;;;1924588;74;21100;-50
2022/03/15 05:36:36;;;;;;;14.85;7.60;;;2.70;79.80;;;;;;1924644;74;21026;-49
2022/03/15 05:39:05;;;;;;;9.95;6.90;;;2.70;80.00;;;;;;1924551;74;21108;-49
2022/03/15 05:41:35;;;;;;;9.08;7.35;;;2.70;78.70;;;;;;1924534;74;21183;-51
2022/03/15 05:44:04;;;;;;;13.75;7.47;;;2.70;78.80;;;;;;1924478;74;21026;-50
2022/03/15 05:46:34;;;;;;;13.68;8.78;;;2.70;79.80;;;;;;1924707;74;21162;-49
2022/03/15 05:49:04;;;;;;;13.93;8.40;;;2.80;79.50;;;;;;1924691;74;21551;-52
2022/03/15 05:51:33;;;;;;;14.30;8.43;;;2.80;79.00;;;;;;1924734;74;21046;-52
2022/03/15 05:54:04;;;;;;;16.87;8.78;;;2.80;79.00;;;;;;1924578;74;21023;-51
2022/03/15 05:56:34;;;;;;;14.20;9.60;;;2.80;78.80;;;;;;1924819;74;21535;-50
2022/03/15 05:59:03;;;;;;;11.93;9.05;;;2.80;77.80;;;;;;1924689;74;21092;-51
2022/03/15 06:01:33;;;;;;;12.37;8.28;;;2.80;78.20;;;;;;1924651;74;21027;-50
2022/03/15 06:04:02;;;;;;;16.37;9.38;;;2.80;78.40;;;;;;1924618;74;21027;-49
2022/03/15 06:06:31;;;;;;;24.43;10.63;;;2.80;78.50;;;;;;1924739;74;21027;-50
2022/03/15 06:09:01;;;;;;;10.10;7.53;;;2.80;78.30;;;;;;1924722;74;21108;-53
2022/03/15 06:11:32;;;;;;;10.63;7.35;;;2.80;77.60;;;;;;1924646;74;21057;-52
2022/03/15 06:14:01;;;;;;;11.83;6.83;;;2.90;77.40;;;;;;1924701;74;21022;-53
2022/03/15 06:16:31;;;;;;;6.67;5.08;;;2.90;76.20;;;;;;1924724;74;21054;-50
2022/03/15 06:19:01;;;;;;;9.20;7.45;;;2.90;75.90;;;;;;1924755;74;21050;-51
2022/03/15 06:21:30;;;;;;;9.28;6.67;;;2.80;76.00;;;;;;1924783;74;21055;-52
2022/03/15 06:24:00;;;;;;;12.15;8.55;;;2.80;76.90;;;;;;1924694;74;21035;-52
2022/03/15 06:26:29;;;;;;;10.30;7.45;;;2.90;76.30;;;;;;1924770;74;21070;-52
2022/03/15 06:28:59;;;;;;;11.08;6.78;;;2.90;75.70;;;;;;1924782;74;21140;-50
2022/03/15 06:31:29;;;;;;;10.75;6.85;;;2.90;76.80;;;;;;1924783;74;21151;-52
2022/03/15 06:33:58;;;;;;;13.45;6.83;;;2.90;76.90;;;;;;1924714;74;21136;-50
2022/03/15 06:36:28;;;;;;;14.35;7.25;;;3.00;75.60;;;;;;1924768;74;21135;-50
2022/03/15 06:38:58;;;;;;;8.80;6.90;;;3.00;77.00;;;;;;1924835;74;21155;-50
2022/03/15 06:41:28;;;;;;;11.90;7.75;;;3.00;74.70;;;;;;1924729;74;21026;-51
2022/03/15 06:43:57;;;;;;;14.15;8.38;;;3.00;76.50;;;;;;1924617;74;21096;-51
2022/03/15 06:46:27;;;;;;;11.83;7.80;;;3.10;75.80;;;;;;1924767;74;21027;-52
2022/03/15 06:48:56;;;;;;;11.90;7.17;;;3.10;75.20;;;;;;1924614;74;21099;-50
2022/03/15 06:51:26;;;;;;;11.50;7.00;;;3.10;74.20;;;;;;1924758;74;21124;-52
2022/03/15 06:53:57;;;;;;;13.50;7.53;;;3.10;72.60;;;;;;1923469;74;21077;-50
2022/03/15 06:56:27;;;;;;;10.48;6.87;;;3.00;72.90;;;;;;1922983;74;21026;-51
2022/03/15 06:58:57;;;;;;;9.63;6.47;;;3.00;71.50;;;;;;1923401;74;21054;-51
2022/03/15 07:01:26;;;;;;;14.95;8.25;;;3.00;71.20;;;;;;1924651;74;21030;-52
2022/03/15 07:03:56;;;;;;;9.50;6.95;;;2.90;72.20;;;;;;1924665;74;21101;-53
2022/03/15 07:06:25;;;;;;;8.75;5.53;;;2.90;72.40;;;;;;1924786;74;21034;-51
2022/03/15 07:08:55;;;;;;;10.90;7.33;;;2.90;72.20;;;;;;1924629;74;20999;-53
2022/03/15 07:11:24;;;;;;;11.78;6.55;;;3.00;72.80;;;;;;1924673;74;21088;-50
2022/03/15 07:13:54;;;;;;;9.90;5.30;;;3.00;70.50;;;;;;1924550;74;21043;-53
2022/03/15 07:16:25;;;;;;;7.95;5.65;;;3.00;71.40;;;;;;1915037;74;21074;-52
2022/03/15 07:18:54;;;;;;;8.88;6.03;;;3.00;69.20;;;;;;1905286;74;21024;-50
2022/03/15 07:21:24;;;;;;;16.05;7.92;;;3.00;70.20;;;;;;1905296;75;20999;-52
2022/03/15 07:23:54;;;;;;;13.03;8.15;;;3.00;71.30;;;;;;1905277;75;21043;-52
2022/03/15 07:26:23;;;;;;;10.23;6.70;;;3.10;71.40;;;;;;1905166;74;21129;-53
2022/03/15 07:28:53;;;;;;;13.75;7.62;;;3.10;69.20;;;;;;1905292;75;21027;-53
2022/03/15 07:31:22;;;;;;;6.53;4.58;;;3.10;70.40;;;;;;1905164;74;21019;-52
2022/03/15 07:33:52;;;;;;;11.90;6.35;;;3.10;69.40;;;;;;1905162;74;21039;-52
2022/03/15 07:36:22;;;;;;;15.88;7.28;;;3.10;69.10;;;;;;1905215;75;21023;-52
2022/03/15 07:38:51;;;;;;;23.27;10.32;;;3.00;70.10;;;;;;1905192;75;21109;-51
2022/03/15 07:41:23;;;;;;;14.95;7.20;;;3.00;70.60;;;;;;1905315;74;20999;-53
2022/03/15 07:43:52;;;;;;;13.18;7.20;;;3.00;70.80;;;;;;1905371;74;21032;-53
2022/03/15 07:46:21;;;;;;;16.27;8.40;;;3.10;71.50;;;;;;1905487;75;21097;-51
2022/03/15 07:48:51;;;;;;;7.20;5.75;;;3.10;71.10;;;;;;1905273;75;20996;-51
2022/03/15 07:51:20;;;;;;;7.37;5.20;;;3.00;70.10;;;;;;1905204;75;21055;-50
2022/03/15 07:53:50;;;;;;;12.23;7.60;;;3.10;69.80;;;;;;1905020;75;21019;-52
2022/03/15 07:56:19;;;;;;;9.38;5.30;;;3.00;70.20;;;;;;1905309;74;21079;-53
2022/03/15 07:58:49;;;;;;;11.85;7.33;;;3.00;69.10;;;;;;1905132;75;21152;-49
2022/03/15 08:01:19;;;;;;;16.32;6.90;;;3.10;70.40;;;;;;1905241;74;21117;-49
2022/03/15 08:03:48;;;;;;;16.60;7.92;;;3.00;71.00;;;;;;1905126;74;21085;-51
2022/03/15 08:06:19;;;;;;;17.42;9.08;;;3.10;70.80;;;;;;1905231;74;21027;-51
2022/03/15 08:08:48;;;;;;;19.52;9.78;;;3.10;71.40;;;;;;1905332;75;21066;-53
2022/03/15 08:11:18;;;;;;;10.48;7.72;;;3.10;71.50;;;;;;1905181;75;21148;-51
2022/03/15 08:13:48;;;;;;;10.40;6.62;;;3.10;70.90;;;;;;1905218;74;21031;-53
2022/03/15 08:16:17;;;;;;;17.00;8.23;;;3.20;70.80;;;;;;1905175;75;21129;-51
2022/03/15 08:18:47;;;;;;;9.28;5.83;;;3.20;71.30;;;;;;1905334;75;21027;-52
2022/03/15 08:21:17;;;;;;;15.00;7.87;;;3.20;70.60;;;;;;1905176;75;21027;-49
2022/03/15 08:23:47;;;;;;;15.38;6.65;;;3.20;71.30;;;;;;1905262;74;20999;-53
2022/03/15 08:26:16;;;;;;;25.37;9.48;;;3.30;70.80;;;;;;1905241;75;21105;-53
2022/03/15 08:28:48;;;;;;;21.12;9.48;;;3.30;71.40;;;;;;1905190;75;21047;-53
2022/03/15 08:31:17;;;;;;;24.02;11.08;;;3.30;71.70;;;;;;1905338;74;21497;-54
2022/03/15 08:33:47;;;;;;;18.48;11.73;;;3.40;71.40;;;;;;1905150;75;21100;-53
2022/03/15 08:36:17;;;;;;;20.95;9.45;;;3.40;72.60;;;;;;1905286;75;21117;-52
2022/03/15 08:38:47;;;;;;;16.62;10.38;;;3.50;71.10;;;;;;1905255;75;21093;-51
2022/03/15 08:41:17;;;;;;;15.75;9.70;;;3.60;71.70;;;;;;1905295;74;21031;-50
2022/03/15 08:43:46;;;;;;;15.70;8.33;;;3.60;72.60;;;;;;1905160;75;21023;-52
2022/03/15 08:46:16;;;;;;;15.45;9.18;;;3.70;72.00;;;;;;1905311;75;21027;-53
2022/03/15 08:48:45;;;;;;;12.37;4.53;;;3.80;71.20;;;;;;1905336;75;21097;-50
2022/03/15 08:51:15;;;;;;;13.00;7.80;;;3.80;69.80;;;;;;1905245;75;21089;-51
2022/03/15 08:53:44;;;;;;;8.03;5.90;;;3.80;70.70;;;;;;1905175;75;21016;-54
2022/03/15 08:56:15;;;;;;;10.30;6.95;;;3.80;69.70;;;;;;1905308;74;21054;-53
2022/03/15 08:58:45;;;;;;;15.98;7.25;;;3.80;71.10;;;;;;1905321;75;21106;-47
2022/03/15 09:01:16;;;;;;;9.88;6.75;;;3.70;70.50;;;;;;1903724;74;21113;-51
2022/03/15 09:03:45;;;;;;;12.37;8.88;;;3.70;70.60;;;;;;1904650;75;20991;-49
2022/03/15 12:08:15;;;;;;;13.22;6.83;;;5.80;68.30;;;;;;1957767;73;27944;-48
2022/03/15 12:10:47;;;;;;;14.73;7.42;;;5.80;70.80;;;;;;1917748;75;21038;-47
2022/03/15 12:13:17;;;;;;;14.75;6.67;;;5.80;70.30;;;;;;1917765;75;21196;-49
2022/03/15 12:15:53;;;;;;;10.70;6.67;;;5.90;70.30;;;;;;1917766;75;21148;-50
2022/03/15 12:18:28;;;;;;;12.43;6.45;;;5.90;70.20;;;;;;1915727;74;21156;-46
2022/03/15 12:21:02;;;;;;;15.40;7.22;;;5.90;69.30;;;;;;1912508;74;21511;-52
2022/03/15 12:23:48;;;;;;;14.53;6.28;;;5.90;68.30;;;;;;1912643;74;21128;-47
2022/03/15 12:26:23;;;;;;;9.10;4.90;;;6.00;68.70;;;;;;1917588;75;21023;-52
2022/03/15 12:28:56;;;;;;;;;;;5.90;66.20;;;;;;1916449;74;21132;-48
2022/03/15 12:31:35;;;;;;;11.28;7.50;;;;;;;;;;1909977;75;20189;-47
2022/03/15 12:34:05;;;;;;;13.25;7.28;;;;;;;;;;1884913;76;21566;-50
2022/03/15 12:36:37;;;;;;;11.40;7.62;;;;;;;;;;1885051;76;21050;-48
2022/03/15 12:39:10;;;;;;;13.83;7.15;;;;;;;;;;1884918;76;21065;-47
2022/03/15 12:41:39;;;;;;;9.23;5.90;;;;;;;;;;1884961;76;21026;-48
2022/03/15 12:44:09;;;;;;;11.85;7.72;;;;;;;;;;1885212;76;21124;-48
2022/03/15 12:46:38;;;;;;;16.00;7.22;;;;;;;;;;1885033;76;21039;-46
2022/03/15 12:49:08;;;;;;;16.62;8.93;;;;;;;;;;1885140;76;21082;-48
2022/03/15 12:51:38;;;;;;;17.07;7.80;;;;;;;;;;1893176;75;21062;-49
2022/03/15 12:54:07;;;;;;;10.60;6.65;;;;;;;;;;1917625;75;21088;-48
2022/03/15 12:56:43;;;;;;;17.50;8.53;;;;;;;;;;1917454;75;21129;-47
2022/03/15 12:59:23;;;;;;;18.85;7.75;;;;;;;;;;1917171;74;21096;-49
2022/03/15 13:01:52;;;;;;;14.23;7.45;;;;;;;;;;1917460;75;21139;-49
2022/03/15 13:04:20;;;;;;;10.10;7.28;;;;;;;;;;1917763;75;21093;-46
2022/03/15 13:06:49;;;;;;;17.10;8.45;;;;;;;;;;1913836;74;21055;-47
2022/03/15 13:09:25;;;;;;;14.20;8.65;;;;;;;;;;1905207;75;21048;-47
2022/03/15 13:11:59;;;;;;;28.27;15.08;;;;;;;;;;1905481;75;21031;-46
2022/03/15 13:14:30;;;;;;;14.07;8.78;;;;;;;;;;1903284;74;21448;-48
2022/03/15 13:17:03;;;;;;;26.68;8.45;;;;;;;;;;1905458;75;21004;-46
2022/03/15 13:19:33;;;;;;;12.35;8.08;;;;;;;;;;1904644;74;21317;-47
2022/03/15 13:22:02;;;;;;;7.70;5.45;;;;;;;;;;1904800;75;21027;-47
2022/03/15 13:24:35;;;;;;;13.78;7.42;;;;;;;;;;1904689;75;21074;-46
2022/03/15 13:27:05;;;;;;;11.40;7.62;;;;;;;;;;1904764;75;21000;-46
2022/03/15 13:29:38;;;;;;;13.25;7.33;;;;;;;;;;1904717;75;21071;-47
